Time;durP1;ratioP1;P1;durP2;ratioP2;P2;SDS_P1;SDS_P2;PMS_P1;PMS_P2;Temp;Humidity;BMP_temperature;BMP_pressure;BME280_temperature;BME280_humidity;BME280_pressure;Samples;Min_cycle;Max_cycle;Signal;HPM_P1;HPM_P2
2022/01/17 00:00:37;;;;;;;12.55;5.63;;;8.40;99.90;;;;;;5052598;28;20056;-52
2022/01/17 00:03:42;;;;;;;16.13;5.82;;;8.30;99.90;;;;;;5052201;28;20051;-55
2022/01/17 00:06:46;;;;;;;12.98;5.50;;;8.20;99.90;;;;;;5052036;28;20079;-53
2022/01/17 00:09:51;;;;;;;34.00;5.88;;;8.20;99.90;;;;;;5051272;28;20040;-55
2022/01/17 00:12:57;;;;;;;10.60;4.20;;;8.10;99.90;;;;;;5052228;28;20809;-55
2022/01/17 00:16:11;;;;;;;10.07;4.47;;;8.00;99.90;;;;;;5051821;28;20044;-55
2022/01/17 00:22:23;;;;;;;10.80;2.90;;;7.90;99.90;;;;;;5051757;28;20045;-55
2022/01/17 00:25:27;;;;;;;6.75;3.00;;;7.90;99.90;;;;;;5051612;28;20052;-55
2022/01/17 00:28:32;;;;;;;10.73;3.35;;;8.00;99.90;;;;;;5051405;28;20041;-55
2022/01/17 00:31:36;;;;;;;10.27;2.70;;;8.00;99.90;;;;;;5051356;28;20064;-55
2022/01/17 00:34:40;;;;;;;7.88;2.58;;;8.00;99.90;;;;;;5051724;28;20051;-52
2022/01/17 00:37:44;;;;;;;8.68;2.70;;;8.00;99.90;;;;;;5051601;28;20041;-53
2022/01/17 00:40:48;;;;;;;7.28;2.70;;;8.00;99.90;;;;;;5051513;28;20036;-55
2022/01/17 00:43:52;;;;;;;13.00;2.70;;;8.00;99.90;;;;;;5051350;28;20499;-54
2022/01/17 00:47:00;;;;;;;8.93;2.75;;;7.90;99.90;;;;;;5050746;28;20052;-52
2022/01/17 00:50:05;;;;;;;13.80;4.68;;;7.80;99.90;;;;;;5050694;28;20049;-54
2022/01/17 00:53:10;;;;;;;8.63;3.13;;;7.80;99.90;;;;;;5051252;28;20048;-55
2022/01/17 00:56:15;;;;;;;9.55;3.90;;;7.70;99.90;;;;;;5050856;28;20049;-54
2022/01/17 00:59:20;;;;;;;6.07;3.00;;;7.50;99.90;;;;;;5050683;28;20033;-53
2022/01/17 01:02:25;;;;;;;13.68;3.90;;;7.40;99.90;;;;;;5050568;28;20036;-53
2022/01/17 01:05:30;;;;;;;11.57;3.85;;;7.30;99.90;;;;;;5050823;28;20040;-54
2022/01/17 01:08:34;;;;;;;6.35;3.17;;;7.10;99.90;;;;;;5050473;28;20048;-53
2022/01/17 01:11:39;;;;;;;7.57;3.83;;;7.00;99.90;;;;;;5051068;28;20495;-52
2022/01/17 01:14:43;;;;;;;10.52;4.15;;;6.90;99.90;;;;;;5051072;28;20041;-51
2022/01/17 01:18:01;;;;;;;10.48;4.82;;;6.80;99.90;;;;;;5050729;28;20040;-55
2022/01/17 01:27:50;;;;;;;;;;;6.50;99.90;;;;;;5050772;28;20041;-52
2022/01/17 01:30:56;;;;;;;9.40;4.10;;;6.20;99.90;;;;;;5050577;28;20150;-52
2022/01/17 01:34:04;;;;;;;12.38;7.65;;;5.80;99.90;;;;;;5050024;28;20040;-51
2022/01/17 01:37:08;;;;;;;13.23;8.35;;;5.40;99.90;;;;;;5050254;28;20040;-52
2022/01/17 01:40:13;;;;;;;18.55;7.55;;;5.30;99.90;;;;;;5049564;28;20047;-52
2022/01/17 01:43:17;;;;;;;20.67;10.30;;;5.10;99.90;;;;;;5050271;28;20048;-53
2022/01/17 01:46:23;;;;;;;16.48;8.95;;;5.00;99.90;;;;;;5049600;28;20044;-52
2022/01/17 01:49:27;;;;;;;20.30;10.50;;;4.80;99.90;;;;;;5049621;28;20542;-51
2022/01/17 01:52:31;;;;;;;22.08;12.80;;;4.90;99.90;;;;;;5050117;28;20047;-55
2022/01/17 01:55:35;;;;;;;33.47;17.75;;;4.80;99.90;;;;;;5049969;28;20413;-56
2022/01/17 01:58:41;;;;;;;32.92;18.80;;;4.70;99.90;;;;;;5048888;28;20051;-55
2022/01/17 02:01:47;;;;;;;36.40;20.35;;;4.70;99.90;;;;;;5050118;28;20047;-56
2022/01/17 02:04:50;;;;;;;34.05;20.52;;;4.80;99.90;;;;;;5049925;28;20056;-56
2022/01/17 02:07:54;;;;;;;34.78;20.77;;;4.70;99.90;;;;;;5049704;28;20052;-55
2022/01/17 02:10:59;;;;;;;40.58;22.35;;;4.80;99.90;;;;;;5050104;28;20052;-55
2022/01/17 02:14:04;;;;;;;39.17;22.45;;;4.80;99.90;;;;;;5050037;28;20036;-55
2022/01/17 02:17:09;;;;;;;32.92;20.77;;;4.80;99.90;;;;;;5049825;28;20048;-54
2022/01/17 02:20:21;;;;;;;31.23;18.80;;;4.90;99.90;;;;;;5049328;28;20052;-54
2022/01/17 02:23:25;;;;;;;27.95;17.63;;;5.00;99.90;;;;;;5049965;28;20047;-55
2022/01/17 02:26:29;;;;;;;32.15;16.27;;;5.10;99.90;;;;;;5049779;28;20067;-55
2022/01/17 02:29:34;;;;;;;37.72;18.13;;;5.20;99.90;;;;;;5049230;28;20068;-55
2022/01/17 02:32:38;;;;;;;28.23;17.20;;;5.30;99.90;;;;;;5049518;28;20047;-55
2022/01/17 02:35:49;;;;;;;30.63;17.40;;;5.30;99.90;;;;;;5049867;28;20514;-51
2022/01/17 02:38:52;;;;;;;31.58;17.42;;;5.40;99.90;;;;;;5049354;28;20036;-51
2022/01/17 02:42:01;;;;;;;26.75;15.43;;;5.50;99.90;;;;;;5049871;28;20124;-53
2022/01/17 02:45:30;;;;;;;26.77;16.45;;;5.40;99.90;;;;;;5049428;28;20095;-55
2022/01/17 02:48:38;;;;;;;26.48;16.48;;;5.40;99.90;;;;;;5048934;28;20044;-54
2022/01/17 02:51:48;;;;;;;25.55;15.77;;;5.50;99.90;;;;;;5049487;28;20047;-53
2022/01/17 02:54:52;;;;;;;27.20;14.05;;;5.40;99.90;;;;;;5049345;28;20056;-55
2022/01/17 02:57:56;;;;;;;30.48;16.33;;;5.40;99.90;;;;;;5049354;28;20048;-54
2022/01/17 03:01:06;;;;;;;25.27;15.30;;;5.40;99.90;;;;;;5049465;28;20048;-55
2022/01/17 03:04:10;;;;;;;28.42;15.30;;;5.40;99.90;;;;;;5049004;28;20056;-52
2022/01/17 03:07:14;;;;;;;25.52;14.32;;;5.30;99.90;;;;;;5049109;28;20044;-52
2022/01/17 03:13:36;;;;;;;19.20;12.43;;;5.40;99.90;;;;;;5053228;28;20412;-54
2022/01/17 03:16:46;;;;;;;20.48;11.20;;;5.50;99.90;;;;;;5053069;28;20399;-55
2022/01/17 03:19:51;;;;;;;22.30;12.07;;;5.60;99.90;;;;;;5052607;28;20051;-52
2022/01/17 03:22:56;;;;;;;20.83;11.32;;;5.60;99.90;;;;;;5053079;28;20044;-51
2022/01/17 03:26:00;;;;;;;17.63;10.85;;;5.50;99.90;;;;;;5052994;28;20068;-55
2022/01/17 03:29:07;;;;;;;26.45;14.18;;;5.40;99.90;;;;;;5052145;28;20048;-55
2022/01/17 03:32:10;;;;;;;22.75;11.60;;;5.10;99.90;;;;;;5052572;28;20052;-55
2022/01/17 03:35:15;;;;;;;21.83;11.68;;;5.00;99.90;;;;;;5052825;28;20048;-51
2022/01/17 03:38:22;;;;;;;26.83;11.90;;;4.90;99.90;;;;;;5052000;28;20039;-53
2022/01/17 03:41:26;;;;;;;25.00;12.93;;;4.90;99.90;;;;;;5052818;28;20098;-55
2022/01/17 03:44:30;;;;;;;21.73;12.50;;;4.70;99.90;;;;;;5052581;28;20051;-53
2022/01/17 03:47:39;;;;;;;24.50;14.05;;;4.50;99.90;;;;;;5052045;28;20053;-55
2022/01/17 03:50:43;;;;;;;31.60;17.17;;;4.40;99.90;;;;;;5052606;28;20051;-53
2022/01/17 03:53:47;;;;;;;29.27;17.20;;;4.30;99.90;;;;;;5052436;28;20048;-52
2022/01/17 03:56:52;;;;;;;26.13;16.58;;;4.20;99.90;;;;;;5052277;28;20048;-54
2022/01/17 03:59:56;;;;;;;26.35;15.88;;;4.10;99.90;;;;;;5051550;28;20044;-54
2022/01/17 04:03:01;;;;;;;28.75;17.20;;;4.00;99.90;;;;;;5051928;28;20048;-54
2022/01/17 04:06:05;;;;;;;29.25;17.05;;;3.90;99.90;;;;;;5052047;28;20063;-52
2022/01/17 04:09:10;;;;;;;26.95;15.90;;;3.80;99.90;;;;;;5051372;28;20056;-54
2022/01/17 04:12:14;;;;;;;29.45;13.60;;;3.70;99.90;;;;;;5051653;28;20530;-52
2022/01/17 04:15:18;;;;;;;34.05;15.38;;;3.70;99.90;;;;;;5052131;28;20438;-54
2022/01/17 04:18:23;;;;;;;20.92;12.55;;;3.70;99.90;;;;;;5051110;28;20052;-54
2022/01/17 04:21:33;;;;;;;27.02;14.50;;;3.70;99.90;;;;;;5051604;28;20059;-52
2022/01/17 04:24:37;;;;;;;33.55;18.70;;;3.70;99.90;;;;;;5051791;28;20044;-53
2022/01/17 04:27:41;;;;;;;41.67;21.10;;;3.70;99.90;;;;;;5051767;28;20523;-55
2022/01/17 04:30:45;;;;;;;41.42;24.40;;;3.70;99.90;;;;;;5051808;28;20053;-55
2022/01/17 04:33:49;;;;;;;55.15;30.67;;;3.70;99.90;;;;;;5051484;28;20047;-53
2022/01/17 04:36:53;;;;;;;43.60;25.58;;;3.60;99.90;;;;;;5051544;28;20059;-53
2022/01/17 04:39:57;;;;;;;60.78;29.70;;;3.60;99.90;;;;;;5050721;28;20048;-54
2022/01/17 04:43:43;;;;;;;41.28;26.38;;;3.60;99.90;;;;;;5051314;28;20044;-54
2022/01/17 04:46:45;;;;;;;45.57;25.90;;;3.50;99.90;;;;;;5051447;28;20056;-55
2022/01/17 04:49:49;;;;;;;50.17;27.92;;;3.50;99.90;;;;;;5050310;28;20510;-52
2022/01/17 04:52:55;;;;;;;58.25;29.20;;;3.50;99.90;;;;;;5050997;28;20412;-55
2022/01/17 04:56:00;;;;;;;51.80;27.90;;;3.50;99.90;;;;;;5050748;28;20056;-58
2022/01/17 04:59:04;;;;;;;48.40;28.35;;;3.50;99.90;;;;;;5050293;28;20043;-52
2022/01/17 05:02:10;;;;;;;47.70;26.83;;;3.50;99.90;;;;;;5050771;28;20047;-55
2022/01/17 05:05:14;;;;;;;52.95;28.48;;;3.40;99.90;;;;;;5051575;28;20051;-52
2022/01/17 05:08:18;;;;;;;49.70;28.48;;;3.40;99.90;;;;;;5050482;28;20039;-54
2022/01/17 05:11:25;;;;;;;55.50;30.30;;;3.40;99.90;;;;;;5050952;28;20404;-53
2022/01/17 05:14:29;;;;;;;54.55;27.85;;;3.30;99.90;;;;;;5051018;28;20043;-54
2022/01/17 05:20:39;;;;;;;63.28;32.63;;;3.20;99.90;;;;;;5050426;28;20032;-52
2022/01/17 05:23:43;;;;;;;60.70;32.47;;;3.20;99.90;;;;;;5050600;28;20048;-54
2022/01/17 05:26:47;;;;;;;65.20;34.72;;;3.20;99.90;;;;;;5050485;28;20047;-56
2022/01/17 05:29:51;;;;;;;135.18;36.00;;;3.20;99.90;;;;;;5049762;28;20044;-54
2022/01/17 05:32:55;;;;;;;90.53;28.02;;;3.20;99.90;;;;;;5050241;28;20069;-57
2022/01/17 05:35:58;;;;;;;49.78;27.23;;;3.30;99.90;;;;;;5050499;28;20048;-54
2022/01/17 05:39:03;;;;;;;55.10;29.58;;;3.20;99.90;;;;;;5049894;28;20507;-52
2022/01/17 05:42:08;;;;;;;66.55;32.10;;;3.20;99.90;;;;;;5050646;28;20044;-52
2022/01/17 05:45:13;;;;;;;77.05;37.33;;;3.10;99.90;;;;;;5050487;28;20173;-53
2022/01/17 05:48:17;;;;;;;71.65;35.40;;;3.10;99.90;;;;;;5049828;28;20040;-52
2022/01/17 05:51:22;;;;;;;74.70;34.40;;;3.00;99.90;;;;;;5049615;28;20395;-54
2022/01/17 05:54:26;;;;;;;73.00;34.15;;;3.00;99.90;;;;;;5050251;28;20044;-52
2022/01/17 05:57:31;;;;;;;74.68;34.58;;;2.90;99.90;;;;;;5050164;28;20040;-55
2022/01/17 06:00:36;;;;;;;67.20;35.28;;;2.90;99.90;;;;;;5049400;28;20040;-54
2022/01/17 06:03:40;;;;;;;73.93;35.10;;;2.90;99.90;;;;;;5049779;28;20053;-53
2022/01/17 06:06:45;;;;;;;67.85;33.90;;;2.90;99.90;;;;;;5049774;28;20053;-53
2022/01/17 06:09:48;;;;;;;76.93;39.70;;;3.00;99.90;;;;;;5048560;28;20040;-51
2022/01/17 06:12:53;;;;;;;66.75;34.35;;;3.00;99.90;;;;;;5049692;28;20044;-52
2022/01/17 06:15:57;;;;;;;66.22;34.78;;;3.10;99.90;;;;;;5049791;28;20051;-56
2022/01/17 06:19:02;;;;;;;73.13;36.15;;;3.10;99.90;;;;;;5049344;28;20048;-52
2022/01/17 06:22:07;;;;;;;69.85;32.58;;;3.10;99.90;;;;;;5049688;28;20052;-56
2022/01/17 06:25:11;;;;;;;62.17;29.77;;;3.20;99.90;;;;;;5049765;28;20048;-54
2022/01/17 06:28:15;;;;;;;99.75;35.95;;;3.20;99.90;;;;;;5049222;28;20518;-56
2022/01/17 06:31:20;;;;;;;681.90;65.78;;;3.30;99.90;;;;;;5049627;28;20056;-56
2022/01/17 06:34:24;;;;;;;677.53;68.75;;;3.30;99.90;;;;;;5049869;28;20047;-57
2022/01/17 06:37:29;;;;;;;596.95;62.90;;;3.20;99.90;;;;;;5049926;28;20047;-53
2022/01/17 06:40:33;;;;;;;542.22;53.58;;;3.10;99.90;;;;;;5049594;28;20056;-57
2022/01/17 06:43:36;;;;;;;482.67;56.30;;;3.00;99.90;;;;;;5049229;28;20407;-54
2022/01/17 06:46:40;;;;;;;291.35;44.17;;;2.90;99.90;;;;;;5049599;28;20055;-56
2022/01/17 06:49:44;;;;;;;604.38;59.75;;;2.80;99.90;;;;;;5048969;28;20075;-54
2022/01/17 06:52:48;;;;;;;255.55;38.35;;;2.70;99.90;;;;;;5049178;28;20059;-55
2022/01/17 06:55:52;;;;;;;625.35;63.72;;;2.70;99.90;;;;;;5049397;28;20052;-54
2022/01/17 06:58:56;;;;;;;219.95;38.33;;;2.80;99.90;;;;;;5048743;28;20060;-56
2022/01/17 07:02:00;;;;;;;632.63;62.55;;;2.90;99.90;;;;;;5049112;28;20048;-56
2022/01/17 07:05:05;;;;;;;578.88;61.45;;;2.90;99.90;;;;;;5050074;28;20057;-56
2022/01/17 07:08:09;;;;;;;98.60;33.33;;;2.70;99.90;;;;;;5061981;28;20048;-55
2022/01/17 07:11:13;;;;;;;319.42;42.28;;;2.70;99.90;;;;;;5069032;28;20115;-52
2022/01/17 07:14:18;;;;;;;376.17;47.90;;;2.70;99.90;;;;;;5069579;28;20411;-55
2022/01/17 07:17:22;;;;;;;392.45;51.83;;;2.80;99.90;;;;;;5064098;28;20044;-52
2022/01/17 07:20:27;;;;;;;403.30;51.30;;;3.00;99.90;;;;;;5049000;28;20048;-55
2022/01/17 07:23:31;;;;;;;109.82;35.90;;;3.10;99.90;;;;;;5048764;28;20112;-56
2022/01/17 07:26:35;;;;;;;177.23;42.67;;;3.30;99.90;;;;;;5029522;28;20052;-53
2022/01/17 07:29:40;;;;;;;142.63;44.78;;;3.40;99.90;;;;;;5042211;28;20044;-52
2022/01/17 07:32:44;;;;;;;157.93;45.97;;;3.50;99.90;;;;;;5052548;28;20305;-58
2022/01/17 07:35:49;;;;;;;195.38;48.03;;;3.60;99.90;;;;;;5068558;28;20056;-54
2022/01/17 07:38:53;;;;;;;92.05;37.28;;;3.70;99.90;;;;;;5067940;28;20047;-52
2022/01/17 07:41:58;;;;;;;80.15;37.25;;;3.80;99.90;;;;;;5066783;28;20052;-55
2022/01/17 07:45:11;;;;;;;92.38;35.83;;;3.90;99.90;;;;;;5067497;28;20433;-53
2022/01/17 07:51:41;;;;;;;97.75;31.17;;;4.20;99.90;;;;;;5028746;28;20412;-54
2022/01/17 07:54:47;;;;;;;75.93;23.83;;;4.40;99.90;;;;;;5028985;28;20052;-55
2022/01/17 07:57:51;;;;;;;38.70;17.08;;;4.60;99.90;;;;;;5068651;28;20051;-54
2022/01/17 08:00:56;;;;;;;34.60;16.38;;;4.70;99.90;;;;;;5069984;28;20043;-53
2022/01/17 08:04:00;;;;;;;181.77;21.90;;;5.00;99.90;;;;;;5054038;28;20048;-55
2022/01/17 08:07:07;;;;;;;55.70;15.35;;;5.00;99.90;;;;;;5052004;28;20036;-55
2022/01/17 08:10:12;;;;;;;288.63;30.42;;;5.00;99.90;;;;;;5057698;28;20055;-54
2022/01/17 08:13:18;;;;;;;81.47;22.13;;;4.70;99.90;;;;;;5064780;28;20040;-55
2022/01/17 08:16:22;;;;;;;73.35;16.80;;;4.50;99.90;;;;;;5071542;28;20387;-53
2022/01/17 08:19:26;;;;;;;41.15;17.55;;;4.60;99.90;;;;;;5071298;28;20039;-52
2022/01/17 08:22:30;;;;;;;34.90;15.85;;;4.70;99.90;;;;;;5068426;28;20039;-53
2022/01/17 08:25:35;;;;;;;290.90;29.67;;;4.80;99.90;;;;;;5071290;28;20043;-55
2022/01/17 08:28:41;;;;;;;269.45;31.35;;;4.60;99.90;;;;;;5052045;28;20067;-53
2022/01/17 08:31:47;;;;;;;244.18;23.92;;;4.40;99.90;;;;;;5052365;28;20056;-56
2022/01/17 08:34:51;;;;;;;208.57;25.33;;;4.30;99.90;;;;;;5054399;28;20052;-56
2022/01/17 08:37:55;;;;;;;375.83;31.48;;;4.30;99.90;;;;;;5051390;28;20107;-57
2022/01/17 08:40:59;;;;;;;92.63;22.30;;;4.20;99.90;;;;;;5055656;28;20434;-54
2022/01/17 08:44:04;;;;;;;231.13;26.90;;;4.40;99.90;;;;;;5071960;28;20043;-52
2022/01/17 08:47:08;;;;;;;232.07;26.77;;;4.30;99.90;;;;;;5031598;28;20180;-55
2022/01/17 08:50:12;;;;;;;249.00;27.42;;;4.50;99.90;;;;;;5049470;28;20048;-53
2022/01/17 08:53:18;;;;;;;160.25;23.50;;;4.60;99.90;;;;;;5050827;28;20048;-55
2022/01/17 08:56:22;;;;;;;82.10;16.65;;;4.60;99.90;;;;;;5055195;28;20036;-53
2022/01/17 08:59:29;;;;;;;55.47;16.42;;;4.50;99.90;;;;;;5030343;28;20040;-55
2022/01/17 09:02:34;;;;;;;283.88;27.80;;;4.50;99.90;;;;;;5042745;28;20040;-55
2022/01/17 09:05:38;;;;;;;249.75;24.52;;;4.60;99.90;;;;;;5053039;28;20052;-53
2022/01/17 09:08:42;;;;;;;281.52;29.67;;;4.60;99.90;;;;;;5050876;28;20052;-53
2022/01/17 09:11:47;;;;;;;71.60;17.80;;;4.60;99.90;;;;;;5050438;28;20044;-52
2022/01/17 09:14:51;;;;;;;76.28;15.75;;;5.00;99.90;;;;;;5062213;28;20044;-53
2022/01/17 09:17:55;;;;;;;84.13;18.00;;;5.20;99.90;;;;;;5070606;28;20051;-53
2022/01/17 09:20:59;;;;;;;44.67;15.18;;;5.40;99.90;;;;;;5052023;28;20040;-51
2022/01/17 09:24:04;;;;;;;30.08;14.02;;;5.80;99.90;;;;;;5050381;28;20044;-51
2022/01/17 09:27:08;;;;;;;26.83;12.98;;;6.30;99.90;;;;;;5051627;28;20052;-55
2022/01/17 09:30:14;;;;;;;62.13;14.27;;;6.90;99.90;;;;;;5068856;28;20047;-53
2022/01/17 09:33:18;;;;;;;134.23;16.35;;;6.90;99.90;;;;;;5056657;28;20115;-53
2022/01/17 09:36:25;;;;;;;185.40;20.15;;;6.70;99.90;;;;;;5050423;28;20048;-54
2022/01/17 09:39:30;;;;;;;143.73;19.95;;;5.60;99.90;;;;;;5059524;28;20055;-56
2022/01/17 09:42:37;;;;;;;144.05;20.42;;;5.70;99.90;;;;;;5055301;28;20048;-54
2022/01/17 09:45:42;;;;;;;174.52;20.38;;;5.30;99.90;;;;;;5050963;28;20059;-53
2022/01/17 09:48:48;;;;;;;178.35;21.73;;;5.50;99.90;;;;;;5039429;28;20421;-54
2022/01/17 09:55:04;;;;;;;265.63;26.85;;;6.30;99.90;;;;;;5050437;28;20423;-55
2022/01/17 09:58:10;;;;;;;48.33;16.77;;;5.70;99.90;;;;;;5053742;28;20043;-58
2022/01/17 10:01:14;;;;;;;56.67;18.73;;;6.20;99.90;;;;;;5062682;28;20391;-56
2022/01/17 10:04:19;;;;;;;35.05;18.27;;;6.50;99.90;;;;;;5057645;28;20051;-55
2022/01/17 10:07:25;;;;;;;42.67;19.23;;;6.90;99.90;;;;;;5056184;28;20068;-55
2022/01/17 10:10:37;;;;;;;108.30;21.92;;;7.20;99.90;;;;;;5063012;28;20396;-56
2022/01/17 10:13:45;;;;;;;188.20;24.77;;;7.50;99.90;;;;;;5039046;28;20039;-57
2022/01/17 10:16:49;;;;;;;34.95;17.73;;;6.80;99.90;;;;;;5049263;28;20063;-58
2022/01/17 10:20:01;;;;;;;214.25;26.40;;;6.20;99.90;;;;;;5062462;28;20035;-58
2022/01/17 10:23:17;;;;;;;260.52;26.90;;;6.40;99.90;;;;;;5057499;28;20044;-58
2022/01/17 10:31:24;;;;;;;124.60;22.60;;;6.50;99.90;;;;;;5025685;28;20064;-57
2022/01/17 10:37:27;;;;;;;199.50;26.80;;;6.80;99.90;;;;;;5044155;28;20048;-57
2022/01/17 10:41:05;;;;;;;61.63;20.27;;;7.20;99.90;;;;;;5059905;28;20048;-56
2022/01/17 10:44:09;;;;;;;93.97;21.77;;;7.70;99.90;;;;;;5062671;28;20052;-55
2022/01/17 10:47:22;;;;;;;91.22;22.33;;;8.00;99.90;;;;;;5068154;28;20063;-55
2022/01/17 10:50:31;;;;;;;126.97;21.90;;;8.40;99.90;;;;;;5066877;28;20048;-58
2022/01/17 10:53:39;;;;;;;179.88;24.23;;;8.40;99.90;;;;;;5068842;28;20514;-56
2022/01/17 10:56:54;;;;;;;153.23;25.35;;;8.20;99.90;;;;;;5064938;28;20047;-54
2022/01/17 10:59:58;;;;;;;288.40;29.23;;;8.10;99.90;;;;;;5060774;28;20053;-56
2022/01/17 11:03:08;;;;;;;253.65;29.65;;;7.10;99.90;;;;;;5067274;28;20542;-55
2022/01/17 11:06:14;;;;;;;154.65;25.60;;;6.90;99.90;;;;;;5069342;28;20051;-54
2022/01/17 11:09:23;;;;;;;59.38;22.38;;;7.30;99.90;;;;;;5063013;28;20400;-56
2022/01/17 11:12:29;;;;;;;51.10;23.73;;;8.10;99.90;;;;;;5040046;28;20124;-52
2022/01/17 11:15:35;;;;;;;93.15;23.02;;;8.70;99.90;;;;;;5049280;28;20048;-54
2022/01/17 11:18:43;;;;;;;50.80;19.38;;;9.10;99.90;;;;;;5041640;28;20074;-56
2022/01/17 11:21:48;;;;;;;81.40;21.92;;;9.40;99.90;;;;;;5068759;28;20040;-54
2022/01/17 11:24:52;;;;;;;94.90;23.15;;;9.40;99.90;;;;;;5064339;28;20039;-53
2022/01/17 11:27:58;;;;;;;106.97;27.30;;;8.80;99.90;;;;;;5050857;28;20044;-58
2022/01/17 11:31:11;;;;;;;69.68;28.63;;;8.60;99.90;;;;;;5053565;28;20699;-53
2022/01/17 11:34:17;;;;;;;142.25;31.00;;;8.80;99.90;;;;;;5056826;28;20050;-56
2022/01/17 11:37:22;;;;;;;197.90;31.08;;;8.50;99.90;;;;;;5071121;28;20051;-56
2022/01/17 11:40:35;;;;;;;221.23;30.77;;;8.30;99.90;;;;;;5056790;28;20408;-55
2022/01/17 11:43:38;;;;;;;87.45;26.48;;;8.60;99.90;;;;;;5052623;28;20044;-56
2022/01/17 11:46:53;;;;;;;189.20;32.20;;;9.20;99.90;;;;;;5054049;28;20403;-56
2022/01/17 11:50:17;;;;;;;63.55;28.55;;;8.80;99.90;;;;;;5056353;28;20048;-59
2022/01/17 11:53:27;;;;;;;104.07;28.67;;;8.90;99.90;;;;;;5055112;28;20044;-55
2022/01/17 11:56:39;;;;;;;94.72;28.33;;;8.40;99.90;;;;;;5052622;28;20055;-57
2022/01/17 11:59:51;;;;;;;67.65;26.95;;;8.90;99.90;;;;;;5053138;28;20036;-54
2022/01/17 12:03:21;;;;;;;95.13;27.20;;;9.50;99.90;;;;;;5053502;28;20064;-54
2022/01/17 12:06:29;;;;;;;59.40;25.80;;;10.30;99.90;;;;;;5055866;28;20415;-56
2022/01/17 12:09:43;;;;;;;82.50;26.80;;;11.10;99.90;;;;;;5051872;28;20068;-58
2022/01/17 12:13:17;;;;;;;52.08;24.20;;;11.60;99.90;;;;;;5051948;28;20048;-54
2022/01/17 12:16:27;;;;;;;58.97;26.00;;;11.60;99.90;;;;;;5051946;28;20080;-57
2022/01/17 12:19:31;;;;;;;50.97;25.48;;;11.50;99.90;;;;;;5050502;28;20048;-55
2022/01/17 12:22:47;;;;;;;55.83;26.08;;;11.90;99.90;;;;;;5054972;28;20036;-55
2022/01/17 12:25:50;;;;;;;54.42;26.33;;;12.00;99.90;;;;;;5063184;28;20043;-57
2022/01/17 12:28:56;;;;;;;41.38;22.35;;;12.50;99.90;;;;;;5055537;28;20048;-56
2022/01/17 12:32:00;;;;;;;40.25;21.35;;;14.70;99.90;;;;;;5061393;28;20036;-57
2022/01/17 12:35:03;;;;;;;36.70;20.65;;;18.20;99.90;;;;;;5054470;28;20063;-57
2022/01/17 12:38:13;;;;;;;34.15;21.33;;;20.80;99.90;;;;;;5070192;28;20510;-58
2022/01/17 12:41:34;;;;;;;36.13;22.55;;;23.10;97.20;;;;;;5064748;28;20051;-57
2022/01/17 12:44:43;;;;;;;37.03;23.13;;;22.20;94.70;;;;;;5045485;28;20040;-58
2022/01/17 12:47:48;;;;;;;32.92;21.67;;;22.30;93.50;;;;;;5060815;28;20079;-58
2022/01/17 12:50:54;;;;;;;34.65;23.60;;;22.00;93.80;;;;;;5034960;28;20048;-58
2022/01/17 12:53:59;;;;;;;33.70;22.92;;;21.70;93.70;;;;;;5058699;28;20048;-57
2022/01/17 12:57:04;;;;;;;32.72;22.00;;;23.10;92.60;;;;;;5071349;28;20044;-57
2022/01/17 13:00:21;;;;;;;31.67;22.15;;;23.50;92.00;;;;;;5070688;28;20118;-57
2022/01/17 13:03:26;;;;;;;32.85;23.00;;;23.30;91.20;;;;;;5070146;28;20043;-57
2022/01/17 13:06:32;;;;;;;33.30;22.75;;;23.70;90.90;;;;;;5053791;28;20059;-56
2022/01/17 13:09:40;;;;;;;40.20;27.60;;;22.80;90.70;;;;;;5058315;28;20043;-56
2022/01/17 13:12:44;;;;;;;47.13;31.95;;;23.70;90.50;;;;;;5053268;28;20514;-58
2022/01/17 13:16:03;;;;;;;48.63;30.85;;;24.00;88.50;;;;;;5057224;28;20044;-58
2022/01/17 13:19:10;;;;;;;44.33;30.20;;;23.20;89.10;;;;;;5050816;28;20399;-57
2022/01/17 13:22:17;;;;;;;42.25;28.98;;;24.90;88.50;;;;;;5065419;28;20422;-59
2022/01/17 13:25:22;;;;;;;39.03;26.10;;;26.10;86.10;;;;;;5051429;28;20048;-59
2022/01/17 13:28:26;;;;;;;39.70;26.40;;;26.70;84.20;;;;;;5067468;28;20517;-58
2022/01/17 13:31:32;;;;;;;37.05;26.80;;;28.00;81.90;;;;;;5069653;28;20055;-58
2022/01/17 13:34:38;;;;;;;34.75;24.33;;;28.00;79.40;;;;;;5068825;28;20055;-59
2022/01/17 13:37:42;;;;;;;34.83;24.35;;;27.90;79.80;;;;;;5044526;28;20056;-58
2022/01/17 13:40:50;;;;;;;46.25;31.00;;;27.20;77.60;;;;;;5050685;28;20048;-57
2022/01/17 13:43:54;;;;;;;44.83;29.23;;;23.50;81.30;;;;;;5051505;28;20506;-58
2022/01/17 13:47:05;;;;;;;43.25;28.55;;;20.70;87.40;;;;;;5061487;28;20044;-58
2022/01/17 13:50:09;;;;;;;40.28;28.02;;;20.80;88.80;;;;;;5054483;28;20059;-57
2022/01/17 13:53:16;;;;;;;38.08;25.95;;;20.60;88.50;;;;;;5047543;28;20040;-57
2022/01/17 13:56:21;;;;;;;39.17;26.35;;;21.70;88.40;;;;;;5057497;28;20047;-58
2022/01/17 13:59:26;;;;;;;34.97;23.60;;;22.50;86.50;;;;;;5030123;28;20132;-58
2022/01/17 14:02:39;;;;;;;31.27;20.10;;;23.60;85.50;;;;;;5063394;28;20047;-58
2022/01/17 14:05:47;;;;;;;29.02;19.00;;;24.50;83.50;;;;;;5052266;28;20044;-59
2022/01/17 14:08:58;;;;;;;25.08;17.83;;;25.30;82.00;;;;;;5038865;28;20052;-58
2022/01/17 14:12:10;;;;;;;24.05;16.95;;;25.90;80.40;;;;;;5059616;28;20040;-58
2022/01/17 14:15:24;;;;;;;22.45;16.08;;;26.00;79.60;;;;;;5059682;28;20043;-58
2022/01/17 14:18:28;;;;;;;24.90;17.13;;;26.30;78.70;;;;;;5058921;28;20039;-58
2022/01/17 14:21:39;;;;;;;24.83;17.45;;;26.10;78.60;;;;;;5053157;28;20043;-59
2022/01/17 14:24:49;;;;;;;24.20;15.48;;;26.00;78.70;;;;;;5049532;28;20052;-57
2022/01/17 14:28:03;;;;;;;24.73;15.45;;;25.90;78.90;;;;;;5049593;28;20048;-57
2022/01/17 14:31:14;;;;;;;25.90;15.02;;;26.00;78.30;;;;;;5056607;28;20052;-57
2022/01/17 14:34:24;;;;;;;21.25;14.20;;;25.90;77.70;;;;;;5067196;28;20522;-58
2022/01/17 14:37:32;;;;;;;27.52;18.23;;;25.70;77.70;;;;;;5069273;28;20140;-58
2022/01/17 14:40:36;;;;;;;39.95;25.35;;;25.50;78.60;;;;;;5069676;28;20043;-58
2022/01/17 14:43:40;;;;;;;31.58;20.85;;;24.90;79.40;;;;;;5047793;28;20032;-59
2022/01/17 14:46:48;;;;;;;28.27;19.02;;;24.70;79.20;;;;;;5049140;28;20047;-59
2022/01/17 14:49:59;;;;;;;31.55;20.02;;;24.30;79.30;;;;;;5056224;28;20047;-58
2022/01/17 14:53:02;;;;;;;28.27;19.08;;;23.80;80.30;;;;;;5065942;28;20047;-56
2022/01/17 14:59:43;;;;;;;22.25;13.60;;;23.10;80.90;;;;;;5069122;28;20039;-59
2022/01/17 15:05:50;;;;;;;29.90;18.85;;;22.30;82.70;;;;;;5033051;28;20045;-58
2022/01/17 15:08:56;;;;;;;32.00;20.52;;;22.00;83.50;;;;;;5064022;28;20059;-58
2022/01/17 15:12:00;;;;;;;33.40;21.15;;;21.90;84.40;;;;;;5073637;28;20461;-58
2022/01/17 15:15:04;;;;;;;34.08;20.83;;;21.80;84.40;;;;;;5073378;28;20048;-56
2022/01/17 15:18:13;;;;;;;23.20;14.18;;;21.40;85.30;;;;;;5067818;28;20529;-58
2022/01/17 15:21:17;;;;;;;38.55;23.92;;;21.00;85.60;;;;;;5053502;28;20061;-57
2022/01/17 15:24:22;;;;;;;28.02;16.63;;;20.80;85.80;;;;;;5053391;28;20433;-56
2022/01/17 15:27:26;;;;;;;26.25;18.85;;;20.40;86.30;;;;;;5052994;28;20071;-58
2022/01/17 15:30:33;;;;;;;18.02;10.50;;;20.00;87.10;;;;;;5069631;28;20075;-56
2022/01/17 15:33:37;;;;;;;13.52;7.70;;;19.30;88.20;;;;;;5072409;28;20051;-56
2022/01/17 15:36:42;;;;;;;14.07;8.10;;;18.80;89.00;;;;;;5072642;28;20047;-57
2022/01/17 15:39:46;;;;;;;15.38;8.18;;;18.30;90.00;;;;;;5069726;28;20063;-57
2022/01/17 15:42:49;;;;;;;13.23;7.18;;;17.60;90.50;;;;;;5052608;28;20044;-54
2022/01/17 15:45:55;;;;;;;13.43;6.95;;;16.90;91.30;;;;;;5052436;28;20048;-55
2022/01/17 15:49:00;;;;;;;13.07;7.90;;;16.30;91.70;;;;;;5069977;22;20056;-58
2022/01/17 15:52:05;;;;;;;16.65;8.63;;;15.60;93.00;;;;;;5052337;28;20043;-58
2022/01/17 15:55:10;;;;;;;17.60;9.68;;;14.70;94.60;;;;;;5052230;28;20423;-58
2022/01/17 15:58:15;;;;;;;20.60;11.65;;;13.80;96.70;;;;;;5051048;28;20487;-58
2022/01/17 16:01:19;;;;;;;14.55;8.88;;;12.90;99.00;;;;;;5052524;28;20059;-58
2022/01/17 16:04:23;;;;;;;14.80;9.73;;;12.10;99.90;;;;;;5051784;28;20051;-56
2022/01/17 16:07:28;;;;;;;18.50;9.68;;;11.60;99.90;;;;;;5051874;28;20047;-58
2022/01/17 16:10:33;;;;;;;21.33;13.82;;;11.20;99.90;;;;;;5049603;28;20064;-57
2022/01/17 16:13:37;;;;;;;29.38;20.05;;;10.70;99.90;;;;;;5049163;28;20443;-58
2022/01/17 16:16:41;;;;;;;18.42;11.15;;;10.40;99.90;;;;;;5050070;28;20112;-59
2022/01/17 16:19:46;;;;;;;24.27;15.10;;;10.20;99.90;;;;;;5049637;28;20048;-58
2022/01/17 16:22:50;;;;;;;21.92;15.40;;;9.90;99.90;;;;;;5051396;28;20056;-58
2022/01/17 16:25:54;;;;;;;21.70;12.27;;;9.70;99.90;;;;;;5035428;28;20044;-58
2022/01/17 16:28:58;;;;;;;25.48;13.88;;;9.50;99.90;;;;;;5046939;28;20050;-58